createdAt,value
2019-04-30T00:01:38.405Z,27.75
2019-04-30T00:04:34.580Z,25.23
2019-04-30T00:07:01.729Z,22.60
2019-04-30T00:09:35.058Z,22.63
2019-04-30T00:12:05.630Z,23.17
2019-04-30T00:14:38.583Z,24.60
2019-04-30T00:17:10.796Z,26.20
2019-04-30T00:19:39.395Z,25.80
2019-04-30T00:22:09.476Z,27.20
2019-04-30T00:24:39.864Z,23.87
2019-04-30T00:27:11.438Z,31.53
2019-04-30T00:29:41.587Z,25.53
2019-04-30T00:32:11.837Z,31.80
2019-04-30T00:34:41.987Z,36.77
2019-04-30T00:37:13.882Z,30.07
2019-04-30T00:39:50.707Z,29.23
2019-04-30T00:42:17.251Z,37.83
2019-04-30T00:44:47.647Z,36.08
2019-04-30T00:47:17.742Z,29.63
2019-04-30T00:49:52.227Z,34.20
2019-04-30T00:52:19.508Z,28.90
2019-04-30T00:54:49.534Z,30.93
2019-04-30T00:57:19.653Z,29.50
2019-04-30T00:59:49.716Z,27.97
2019-04-30T01:02:31.763Z,29.60
2019-04-30T01:05:06.161Z,30.67
2019-04-30T01:07:31.309Z,34.23
2019-04-30T01:10:01.550Z,34.07
2019-04-30T01:12:36.396Z,37.10
2019-04-30T01:15:06.509Z,39.73
2019-04-30T01:17:35.597Z,39.10
2019-04-30T01:20:06.703Z,35.03
2019-04-30T01:22:38.879Z,34.67
2019-04-30T01:25:13.378Z,36.97
2019-04-30T01:27:45.762Z,37.30
2019-04-30T01:30:21.104Z,37.43
2019-04-30T01:32:51.931Z,41.80
2019-04-30T01:35:19.149Z,37.03
2019-04-30T01:37:49.303Z,36.58
2019-04-30T01:40:19.700Z,42.58
2019-04-30T01:42:51.638Z,33.53
2019-04-30T01:45:23.244Z,29.50
2019-04-30T01:47:53.631Z,32.13
2019-04-30T01:50:23.786Z,28.30
2019-04-30T01:52:53.950Z,37.00
2019-04-30T01:55:43.351Z,35.27
2019-04-30T01:58:22.380Z,34.30
2019-04-30T02:00:55.721Z,38.47
2019-04-30T02:03:25.887Z,38.87
2019-04-30T02:05:56.099Z,42.60
2019-04-30T02:08:26.270Z,40.43
2019-04-30T02:10:56.373Z,36.27
2019-04-30T02:13:26.555Z,34.07
2019-04-30T02:15:56.574Z,36.90
2019-04-30T02:18:26.691Z,40.47
2019-04-30T02:20:56.795Z,42.23
2019-04-30T02:23:26.832Z,35.77
2019-04-30T02:25:58.836Z,37.98
2019-04-30T02:28:29.164Z,40.77
2019-04-30T02:31:00.371Z,42.33
2019-04-30T02:33:32.454Z,44.23
2019-04-30T02:36:24.325Z,44.60
2019-04-30T02:38:55.403Z,43.17
2019-04-30T02:41:29.271Z,39.27
2019-04-30T02:44:02.991Z,46.50
2019-04-30T02:46:33.988Z,50.45
2019-04-30T02:49:05.553Z,58.40
2019-04-30T02:51:40.071Z,51.90
2019-04-30T02:54:25.218Z,46.73
2019-04-30T02:57:23.718Z,44.73
2019-04-30T03:00:24.807Z,50.53
2019-04-30T03:02:54.935Z,40.83
2019-04-30T03:05:25.000Z,42.37
2019-04-30T03:07:55.212Z,42.30
2019-04-30T03:10:25.395Z,41.67
2019-04-30T03:12:55.653Z,43.80
2019-04-30T03:15:25.787Z,42.50
2019-04-30T03:18:11.499Z,47.67
2019-04-30T03:20:52.172Z,54.33
2019-04-30T03:23:22.319Z,49.90
2019-04-30T03:25:52.439Z,55.27
2019-04-30T03:28:22.593Z,57.60
2019-04-30T03:30:57.972Z,55.27
2019-04-30T03:33:24.458Z,56.00
2019-04-30T03:35:55.310Z,43.77
2019-04-30T03:38:25.551Z,43.03
2019-04-30T03:40:55.632Z,48.33
2019-04-30T03:43:25.861Z,57.87
2019-04-30T03:45:55.802Z,47.97
2019-04-30T03:48:25.908Z,57.60
2019-04-30T03:50:57.243Z,55.45
2019-04-30T03:53:29.764Z,55.50
2019-04-30T03:56:01.482Z,49.77
2019-04-30T03:58:31.217Z,44.37
2019-04-30T04:01:14.064Z,51.50
2019-04-30T04:04:01.484Z,52.83
2019-04-30T04:06:39.411Z,56.47
2019-04-30T04:09:21.972Z,53.57
2019-04-30T04:11:51.004Z,50.17
2019-04-30T04:14:21.154Z,45.13
2019-04-30T04:16:51.233Z,51.48
2019-04-30T04:19:21.384Z,50.88
2019-04-30T04:21:51.362Z,51.40
2019-04-30T04:24:21.595Z,50.33
2019-04-30T04:26:51.662Z,57.70
2019-04-30T04:29:21.618Z,58.47
2019-04-30T04:31:51.673Z,48.73
2019-04-30T04:34:21.710Z,45.97
2019-04-30T04:36:51.768Z,55.07
2019-04-30T04:39:21.703Z,48.60
2019-04-30T04:41:51.837Z,44.17
2019-04-30T04:44:21.971Z,54.07
2019-04-30T04:46:52.073Z,57.37
2019-04-30T04:49:22.541Z,48.17
2019-04-30T04:51:52.654Z,47.97
2019-04-30T04:54:22.841Z,43.73
2019-04-30T04:56:54.762Z,45.63
2019-04-30T04:59:24.654Z,44.53
2019-04-30T05:01:54.743Z,50.90
2019-04-30T05:04:24.898Z,49.10
2019-04-30T05:06:54.983Z,47.37
2019-04-30T05:09:25.091Z,55.97
2019-04-30T05:11:55.185Z,51.33
2019-04-30T05:14:25.207Z,45.80
2019-04-30T05:16:55.165Z,44.33
2019-04-30T05:19:25.314Z,47.00
2019-04-30T05:21:55.325Z,44.50
2019-04-30T05:24:25.382Z,43.80
2019-04-30T05:26:55.466Z,42.75
2019-04-30T05:29:25.410Z,46.10
2019-04-30T05:31:55.439Z,48.80
2019-04-30T05:34:25.574Z,50.43
2019-04-30T05:36:55.575Z,49.17
2019-04-30T05:39:25.714Z,41.97
2019-04-30T05:41:55.751Z,41.53
2019-04-30T05:44:25.768Z,59.10
2019-04-30T05:46:55.789Z,52.40
2019-04-30T05:49:25.731Z,46.33
2019-04-30T05:51:56.027Z,46.77
2019-04-30T05:54:26.296Z,50.60
2019-04-30T05:56:56.427Z,46.45
2019-04-30T05:59:28.798Z,44.93
2019-04-30T06:01:59.195Z,43.35
2019-04-30T06:04:29.510Z,60.07
2019-04-30T06:06:59.679Z,59.17
2019-04-30T06:09:39.727Z,47.70
2019-04-30T06:12:28.420Z,48.37
2019-04-30T06:15:23.552Z,58.38
2019-04-30T06:18:00.766Z,52.62
2019-04-30T06:20:25.655Z,46.83
2019-04-30T06:22:57.106Z,50.33
2019-04-30T06:25:37.180Z,43.83
2019-04-30T06:28:00.877Z,46.07
2019-04-30T06:30:32.019Z,45.63
2019-04-30T06:33:02.775Z,37.73
2019-04-30T06:35:33.052Z,37.87
2019-04-30T06:38:03.218Z,40.27
2019-04-30T06:40:33.416Z,41.17
2019-04-30T06:43:03.703Z,43.10
2019-04-30T06:45:36.408Z,47.77
2019-04-30T06:48:09.014Z,39.10
2019-04-30T06:50:39.464Z,50.30
2019-04-30T06:53:09.594Z,45.13
2019-04-30T06:55:39.683Z,44.47
2019-04-30T06:58:15.054Z,34.83
2019-04-30T07:00:41.643Z,41.00
2019-04-30T07:03:11.715Z,38.20
2019-04-30T07:05:41.937Z,41.23
2019-04-30T07:08:38.911Z,44.43
2019-04-30T07:11:19.493Z,38.10
2019-04-30T07:13:52.309Z,42.90
2019-04-30T07:16:22.194Z,44.13
2019-04-30T07:18:52.214Z,40.13
2019-04-30T07:21:22.433Z,39.43
2019-04-30T07:23:52.583Z,39.18
2019-04-30T07:26:24.390Z,34.53
2019-04-30T07:28:55.459Z,34.00
2019-04-30T07:31:25.811Z,40.17
2019-04-30T07:33:55.775Z,35.50
2019-04-30T07:36:43.319Z,30.77
2019-04-30T07:38:59.903Z,34.47
2019-04-30T07:41:31.291Z,36.37
2019-04-30T07:44:01.433Z,38.07
2019-04-30T07:46:35.178Z,39.00
2019-04-30T07:49:03.535Z,28.57
2019-04-30T07:51:37.944Z,30.93
2019-04-30T07:54:05.563Z,35.17
2019-04-30T07:56:38.750Z,40.83
2019-04-30T07:59:10.833Z,32.47
2019-04-30T08:04:29.423Z,32.10
2019-04-30T08:07:01.430Z,35.33
2019-04-30T08:09:35.580Z,31.00
2019-04-30T08:09:39.231Z,30.17
2019-04-30T08:12:03.632Z,36.77
2019-04-30T08:14:33.744Z,34.93
2019-04-30T08:17:03.851Z,27.53
2019-04-30T08:19:34.049Z,31.27
2019-04-30T08:22:04.203Z,36.45
2019-04-30T08:24:34.205Z,31.80
2019-04-30T08:27:04.410Z,27.93
2019-04-30T08:29:34.343Z,29.70
2019-04-30T08:32:04.440Z,30.30
2019-04-30T08:34:34.375Z,25.23
2019-04-30T08:37:15.261Z,27.03
2019-04-30T08:39:36.452Z,23.67
2019-04-30T08:42:06.616Z,23.40
2019-04-30T08:44:36.793Z,23.73
2019-04-30T08:47:08.629Z,19.70
2019-04-30T08:49:40.448Z,26.00
2019-04-30T08:52:11.384Z,20.40
2019-04-30T08:54:41.865Z,19.83
2019-04-30T08:57:11.897Z,23.77
2019-04-30T08:59:42.059Z,20.50
2019-04-30T09:02:16.237Z,25.00
2019-04-30T09:04:44.187Z,23.00
2019-04-30T09:07:14.376Z,19.47
2019-04-30T09:09:44.741Z,19.60
2019-04-30T09:12:14.983Z,18.52
2019-04-30T09:14:45.157Z,21.05
2019-04-30T09:17:15.168Z,21.82
2019-04-30T09:19:45.189Z,21.07
2019-04-30T09:22:15.391Z,17.87
2019-04-30T09:24:45.332Z,22.58
2019-04-30T09:27:15.514Z,20.15
2019-04-30T09:29:45.606Z,19.63
2019-04-30T09:32:15.764Z,20.83
2019-04-30T09:34:45.860Z,24.80
2019-04-30T09:37:15.977Z,23.83
2019-04-30T09:39:46.064Z,23.27
2019-04-30T09:42:16.118Z,22.40
2019-04-30T09:44:46.161Z,22.83
2019-04-30T09:47:16.256Z,21.93
2019-04-30T09:49:46.388Z,24.10
2019-04-30T09:52:18.840Z,26.63
2019-04-30T09:54:49.849Z,26.53
2019-04-30T09:57:20.447Z,28.47
2019-04-30T09:59:50.412Z,24.63
2019-04-30T10:02:20.575Z,24.10
2019-04-30T10:04:51.008Z,23.43
2019-04-30T10:07:21.478Z,22.20
2019-04-30T10:09:51.573Z,25.80
2019-04-30T10:12:21.767Z,25.40
2019-04-30T10:14:51.970Z,26.57
2019-04-30T10:17:34.156Z,26.27
2019-04-30T10:20:05.402Z,31.10
2019-04-30T10:22:35.527Z,27.53
2019-04-30T10:25:07.028Z,27.10
2019-04-30T10:27:38.762Z,29.30
2019-04-30T10:30:11.410Z,42.07
2019-04-30T10:32:41.649Z,35.10
2019-04-30T10:35:12.061Z,33.43
2019-04-30T10:37:42.380Z,29.77
2019-04-30T10:40:12.786Z,31.17
2019-04-30T10:42:42.921Z,27.10
2019-04-30T10:45:13.472Z,38.60
2019-04-30T10:47:43.695Z,32.57
2019-04-30T10:50:14.411Z,30.77
2019-04-30T10:52:44.622Z,34.00
2019-04-30T10:55:15.004Z,30.13
2019-04-30T10:57:45.138Z,29.90
2019-04-30T11:00:18.618Z,32.53
2019-04-30T11:02:49.664Z,31.50
2019-04-30T11:05:21.118Z,38.33
2019-04-30T11:07:51.310Z,32.63
2019-04-30T11:10:21.565Z,24.67
2019-04-30T11:12:51.515Z,31.70
2019-04-30T11:15:21.802Z,31.93
2019-04-30T11:17:52.085Z,29.60
2019-04-30T11:20:22.711Z,27.83
2019-04-30T11:22:54.748Z,26.00
2019-04-30T11:25:25.348Z,27.33
2019-04-30T11:27:56.397Z,23.03
2019-04-30T11:30:29.185Z,34.43
2019-04-30T11:32:59.042Z,24.90
2019-04-30T11:35:29.805Z,28.07
2019-04-30T11:38:00.011Z,30.53
2019-04-30T11:40:37.057Z,28.10
2019-04-30T11:43:03.942Z,34.30
2019-04-30T11:46:41.175Z,35.30
2019-04-30T11:49:12.323Z,33.00
2019-04-30T11:51:42.407Z,27.60
2019-04-30T11:54:12.576Z,30.63
2019-04-30T11:56:42.594Z,27.93
2019-04-30T11:59:12.729Z,22.80
2019-04-30T12:01:42.773Z,25.00
2019-04-30T12:04:12.958Z,25.80
2019-04-30T12:06:43.115Z,25.97
2019-04-30T12:09:38.699Z,28.83
2019-04-30T12:12:09.214Z,34.90
2019-04-30T12:14:39.617Z,33.63
2019-04-30T12:17:09.971Z,25.47
2019-04-30T12:19:40.100Z,23.17
2019-04-30T12:22:10.217Z,36.80
2019-04-30T12:24:40.665Z,31.37
2019-04-30T12:27:10.783Z,34.57
2019-04-30T12:29:40.834Z,27.37
2019-04-30T12:32:10.855Z,22.20
2019-04-30T12:34:40.915Z,27.60
2019-04-30T12:37:10.999Z,33.67
2019-04-30T12:39:41.167Z,30.83
2019-04-30T12:42:11.274Z,30.93
2019-04-30T12:44:41.337Z,24.63
2019-04-30T12:47:11.529Z,25.10
2019-04-30T12:50:16.671Z,27.40
2019-04-30T12:52:53.587Z,27.67
2019-04-30T12:55:41.727Z,28.53
2019-04-30T12:58:12.966Z,25.93
2019-04-30T13:00:43.155Z,29.15
2019-04-30T13:03:13.261Z,25.37
2019-04-30T13:05:43.788Z,31.73
2019-04-30T13:08:14.655Z,32.33
2019-04-30T13:10:45.808Z,24.10
2019-04-30T13:13:16.977Z,25.33
2019-04-30T13:15:47.492Z,22.32
2019-04-30T13:18:19.386Z,27.52
2019-04-30T13:20:49.444Z,25.70
2019-04-30T13:23:19.604Z,30.70
2019-04-30T13:25:51.632Z,21.37
2019-04-30T13:28:23.254Z,23.17
2019-04-30T13:30:53.362Z,23.10
2019-04-30T13:33:29.545Z,28.60
2019-04-30T13:35:59.691Z,28.90
2019-04-30T13:38:47.186Z,23.87
2019-04-30T13:41:26.940Z,29.00
2019-04-30T13:43:58.862Z,27.67
2019-04-30T13:46:29.096Z,31.47
2019-04-30T13:48:59.264Z,23.83
2019-04-30T13:51:29.376Z,25.20
2019-04-30T13:53:59.585Z,25.87
2019-04-30T13:56:29.719Z,23.13
2019-04-30T13:58:59.891Z,27.77
2019-04-30T14:01:30.963Z,24.03
2019-04-30T14:04:13.388Z,29.83
2019-04-30T14:07:08.188Z,25.72
2019-04-30T14:09:38.362Z,26.37
2019-04-30T14:12:08.540Z,25.70
2019-04-30T14:14:39.535Z,25.80
2019-04-30T14:17:09.712Z,24.45
2019-04-30T14:19:39.824Z,26.90
2019-04-30T14:22:10.284Z,24.07
2019-04-30T14:24:40.368Z,23.33
2019-04-30T14:27:10.555Z,25.40
2019-04-30T14:29:40.576Z,29.13
2019-04-30T14:32:10.831Z,25.80
2019-04-30T14:34:40.954Z,25.80
2019-04-30T14:37:10.997Z,26.90
2019-04-30T14:39:41.483Z,25.33
2019-04-30T14:42:12.796Z,29.73
2019-04-30T14:44:44.487Z,26.12
2019-04-30T14:47:29.798Z,30.50
2019-04-30T14:50:15.285Z,30.80
2019-04-30T14:53:03.157Z,30.53
2019-04-30T14:55:55.348Z,26.80
2019-04-30T14:58:41.560Z,29.07
2019-04-30T15:01:26.177Z,30.57
2019-04-30T15:03:56.391Z,24.27
2019-04-30T15:06:26.631Z,29.60
2019-04-30T15:08:56.755Z,30.07
2019-04-30T15:11:28.743Z,23.87
2019-04-30T15:13:59.207Z,30.63
2019-04-30T15:16:29.468Z,23.97
2019-04-30T15:18:59.644Z,23.77
2019-04-30T15:21:29.825Z,24.80
2019-04-30T15:24:13.059Z,27.13
2019-04-30T15:26:44.910Z,25.13
2019-04-30T15:29:16.241Z,29.27
2019-04-30T15:31:46.593Z,24.60
2019-04-30T15:34:16.678Z,24.67
2019-04-30T15:36:46.990Z,31.93
2019-04-30T15:39:35.004Z,19.80
2019-04-30T15:42:05.437Z,25.77
2019-04-30T15:44:40.036Z,23.13
2019-04-30T15:47:09.106Z,20.63
2019-04-30T15:49:39.406Z,25.05
2019-04-30T15:52:10.991Z,28.20
2019-04-30T15:54:41.091Z,31.20
2019-04-30T15:57:11.152Z,30.90
2019-04-30T15:59:44.968Z,23.30
2019-04-30T16:02:33.021Z,21.47
2019-04-30T16:05:34.396Z,25.47
2019-04-30T16:08:39.076Z,26.47
2019-04-30T16:11:40.218Z,24.47
2019-04-30T16:14:26.389Z,24.83
2019-04-30T16:17:04.702Z,22.70
2019-04-30T16:19:34.907Z,30.23
2019-04-30T16:22:05.840Z,24.60
2019-04-30T16:24:36.109Z,25.20
2019-04-30T16:27:06.591Z,33.10
2019-04-30T16:29:49.810Z,21.40
2019-04-30T16:32:21.317Z,19.03
2019-04-30T16:34:51.433Z,24.80
2019-04-30T16:37:21.385Z,26.30
2019-04-30T16:39:51.550Z,22.30
2019-04-30T16:42:21.634Z,21.00
2019-04-30T16:44:51.735Z,18.50
2019-04-30T16:47:21.867Z,23.00
2019-04-30T16:49:52.084Z,24.40
2019-04-30T16:52:22.160Z,23.83
2019-04-30T16:54:52.168Z,23.50
2019-04-30T16:57:22.375Z,21.53
2019-04-30T16:59:53.499Z,52.73
2019-04-30T17:02:25.421Z,20.23
2019-04-30T17:05:02.943Z,21.03
2019-04-30T17:07:50.703Z,26.50
2019-04-30T17:10:31.283Z,25.07
2019-04-30T17:13:20.276Z,26.73
2019-04-30T17:15:51.953Z,22.93
2019-04-30T17:18:22.099Z,21.05
2019-04-30T17:20:52.153Z,22.30
2019-04-30T17:23:22.343Z,20.47
2019-04-30T17:25:52.337Z,33.05
2019-04-30T17:28:22.549Z,23.17
2019-04-30T17:30:52.611Z,28.70
2019-04-30T17:33:22.635Z,27.40
2019-04-30T17:35:52.701Z,21.97
2019-04-30T17:38:22.713Z,20.70
2019-04-30T17:40:52.770Z,26.70
2019-04-30T17:43:24.390Z,25.53
2019-04-30T17:45:54.699Z,29.27
2019-04-30T17:48:24.727Z,23.30
2019-04-30T17:50:54.859Z,25.03
2019-04-30T17:53:25.135Z,20.30
2019-04-30T17:55:55.104Z,37.53
2019-04-30T17:58:25.205Z,24.90
2019-04-30T18:00:57.082Z,25.03
2019-04-30T18:03:28.850Z,23.67
2019-04-30T18:05:59.265Z,26.63
2019-04-30T18:08:29.525Z,24.17
2019-04-30T18:10:59.637Z,22.37
2019-04-30T18:13:29.746Z,24.17
2019-04-30T18:16:00.450Z,23.20
2019-04-30T18:18:59.216Z,22.83
2019-04-30T18:21:40.154Z,25.17
2019-04-30T18:24:26.037Z,20.30
2019-04-30T18:27:00.683Z,25.23
2019-04-30T18:29:30.709Z,24.83
2019-04-30T18:32:00.894Z,22.03
2019-04-30T18:34:30.965Z,24.87
2019-04-30T18:37:01.010Z,18.33
2019-04-30T18:39:31.180Z,23.17
2019-04-30T18:42:01.389Z,24.73
2019-04-30T18:44:31.491Z,22.07
2019-04-30T18:47:01.726Z,29.07
2019-04-30T18:49:31.856Z,24.63
2019-04-30T18:52:02.056Z,21.07
2019-04-30T18:54:32.172Z,22.37
2019-04-30T18:57:02.405Z,27.63
2019-04-30T18:59:32.718Z,21.33
2019-04-30T19:02:04.628Z,22.90
2019-04-30T19:04:34.874Z,19.87
2019-04-30T19:07:18.140Z,24.27
2019-04-30T19:10:19.609Z,26.20
2019-04-30T19:13:02.630Z,28.00
2019-04-30T19:16:17.925Z,27.93
2019-04-30T19:18:32.237Z,31.63
2019-04-30T19:21:02.825Z,25.73
2019-04-30T19:23:32.877Z,31.13
2019-04-30T19:26:03.090Z,30.67
2019-04-30T19:28:33.251Z,40.73
2019-04-30T19:31:03.594Z,33.20
2019-04-30T19:33:33.624Z,31.80
2019-04-30T19:36:03.870Z,32.93
2019-04-30T19:38:34.355Z,33.67
2019-04-30T19:41:04.571Z,32.10
2019-04-30T19:43:34.649Z,28.17
2019-04-30T19:46:04.925Z,32.40
2019-04-30T19:48:35.038Z,25.23
2019-04-30T19:51:05.296Z,29.97
2019-04-30T19:53:35.450Z,27.67
2019-04-30T19:56:05.570Z,36.53
2019-04-30T19:58:50.112Z,35.10
2019-04-30T20:01:09.393Z,28.27
2019-04-30T20:03:40.725Z,31.90
2019-04-30T20:06:11.080Z,37.30
2019-04-30T20:08:41.033Z,25.15
2019-04-30T20:11:11.198Z,30.90
2019-04-30T20:13:41.300Z,30.37
2019-04-30T20:16:11.421Z,31.17
2019-04-30T20:18:41.663Z,33.27
2019-04-30T20:21:25.254Z,34.43
2019-04-30T20:23:48.182Z,32.63
2019-04-30T20:26:18.246Z,30.07
2019-04-30T20:28:48.795Z,29.13
2019-04-30T20:31:19.153Z,33.50
2019-04-30T20:33:49.246Z,38.07
2019-04-30T20:36:19.479Z,38.60
2019-04-30T20:39:17.437Z,25.47
2019-04-30T20:41:51.357Z,29.35
2019-04-30T20:44:21.618Z,39.40
2019-04-30T20:46:51.655Z,39.10
2019-04-30T20:49:21.800Z,39.42
2019-04-30T20:51:55.235Z,29.27
2019-04-30T20:54:23.827Z,36.23
2019-04-30T20:56:53.897Z,32.37
2019-04-30T20:59:23.974Z,37.93
2019-04-30T21:01:54.416Z,30.40
2019-04-30T21:04:24.470Z,33.90
2019-04-30T21:06:54.585Z,36.07
2019-04-30T21:09:24.603Z,35.03
2019-04-30T21:11:54.745Z,33.00
2019-04-30T21:14:24.848Z,28.97
2019-04-30T21:16:55.166Z,33.10
2019-04-30T21:19:25.284Z,30.17
2019-04-30T21:21:55.306Z,32.70
2019-04-30T21:24:25.248Z,34.10
2019-04-30T21:26:55.436Z,30.70
2019-04-30T21:29:25.578Z,28.57
2019-04-30T21:32:04.123Z,34.53
2019-04-30T21:34:44.377Z,27.00
2019-04-30T21:37:14.586Z,31.43
2019-04-30T21:39:44.686Z,35.73
2019-04-30T21:42:14.791Z,30.13
2019-04-30T21:44:44.823Z,37.70
2019-04-30T21:47:14.969Z,26.70
2019-04-30T21:49:45.059Z,30.40
2019-04-30T21:52:15.270Z,33.50
2019-04-30T21:54:45.420Z,32.13
2019-04-30T21:57:15.659Z,34.13
2019-04-30T21:59:45.743Z,37.93
2019-04-30T22:02:16.162Z,34.40
2019-04-30T22:04:46.257Z,35.13
2019-04-30T22:07:16.419Z,32.27
2019-04-30T22:09:46.617Z,27.80
2019-04-30T22:12:16.744Z,33.57
2019-04-30T22:14:46.903Z,34.47
2019-04-30T22:17:19.275Z,30.10
2019-04-30T22:19:51.592Z,32.83
2019-04-30T22:22:21.064Z,35.20
2019-04-30T22:24:51.248Z,39.50
2019-04-30T22:27:21.353Z,44.30
2019-04-30T22:29:51.523Z,38.88
2019-04-30T22:32:21.645Z,36.00
2019-04-30T22:34:51.830Z,38.80
2019-04-30T22:37:21.861Z,33.20
2019-04-30T22:39:59.385Z,49.57
2019-04-30T22:42:32.811Z,37.87
2019-04-30T22:45:06.318Z,39.75
2019-04-30T22:47:36.469Z,40.53
2019-04-30T22:50:08.707Z,33.70
2019-04-30T22:52:38.914Z,37.80
2019-04-30T22:55:09.521Z,39.00
2019-04-30T22:57:39.573Z,37.40
2019-04-30T23:00:14.635Z,38.83
2019-04-30T23:02:57.552Z,38.87
2019-04-30T23:05:27.734Z,37.03
2019-04-30T23:07:57.888Z,44.87
2019-04-30T23:10:28.148Z,37.77
2019-04-30T23:12:58.389Z,36.50
2019-04-30T23:15:28.622Z,38.23
2019-04-30T23:17:58.749Z,42.73
2019-04-30T23:20:28.957Z,41.10
2019-04-30T23:22:59.073Z,42.60
2019-04-30T23:25:29.426Z,38.08
2019-04-30T23:27:59.512Z,40.78
2019-04-30T23:30:29.647Z,46.03
2019-04-30T23:32:59.692Z,40.13
2019-04-30T23:35:29.866Z,40.80
2019-04-30T23:37:59.992Z,45.20
2019-04-30T23:40:46.150Z,44.03
2019-04-30T23:43:16.282Z,39.37
2019-04-30T23:45:46.323Z,42.10
2019-04-30T23:48:16.763Z,47.33
2019-04-30T23:50:46.876Z,39.43
2019-04-30T23:53:16.964Z,37.73
2019-04-30T23:55:47.092Z,42.00
2019-04-30T23:58:17.186Z,36.03
